Hoyt, Kansas
Current Conditions -  °F | °C
As of 5:53 PM on Saturday 20 Dec 2014 (Local Time) from KTOP Reporting Station
Clear Clear  
Wind Chill: 41°   Ceiling: Unl
Heat Index: 44°   Visibility: 10mi
Dew Point: 37°   Wind: 6mph
Humidity: 76%   Direction: 160°SSE
Pressure: 30.11"   Gusts: NA
Location:  39.25°N, 95.71°W
Report Text: KTOP 202353Z 16005KT 10SM CLR 07/03 A3011 RMK AO2 SLP201 T00670028 10106 20067 53004
Loading
Personal Weather Stations






























Interactive Weather Map New forecast layout! Learn more

10-Day Weather Forecast

Advertisements
Track Severe Weather on mobile